sensor_id;sensor_type;location;lat;lon;timestamp;pressure;altitude;pressure_sealevel;temperature;humidity
59110;BME280;44895;47.438;18.978;2023-02-12T00:01:20;101316.84;;;3.78;100.00
59110;BME280;44895;47.438;18.978;2023-02-12T00:04:24;101317.25;;;3.82;100.00
59110;BME280;44895;47.438;18.978;2023-02-12T00:07:29;101313.34;;;3.78;100.00
59110;BME280;44895;47.438;18.978;2023-02-12T00:10:34;101322.88;;;3.73;100.00
59110;BME280;44895;47.438;18.978;2023-02-12T00:13:37;101316.47;;;3.74;100.00
59110;BME280;44895;47.438;18.978;2023-02-12T00:16:41;101318.56;;;3.72;100.00
59110;BME280;44895;47.438;18.978;2023-02-12T00:19:46;101320.19;;;3.73;100.00
59110;BME280;44895;47.438;18.978;2023-02-12T00:22:50;101320.16;;;3.80;100.00
59110;BME280;44895;47.438;18.978;2023-02-12T00:25:54;101310.13;;;3.69;100.00
59110;BME280;44895;47.438;18.978;2023-02-12T00:28:57;101312.63;;;3.64;100.00
59110;BME280;44895;47.438;18.978;2023-02-12T00:32:01;101313.84;;;3.68;100.00
59110;BME280;44895;47.438;18.978;2023-02-12T00:35:05;101313.56;;;3.76;100.00
59110;BME280;44895;47.438;18.978;2023-02-12T00:38:09;101289.72;;;3.61;100.00
59110;BME280;44895;47.438;18.978;2023-02-12T00:41:12;101304.44;;;3.77;100.00
59110;BME280;44895;47.438;18.978;2023-02-12T00:44:16;101299.13;;;3.70;100.00
59110;BME280;44895;47.438;18.978;2023-02-12T00:47:20;101310.88;;;3.76;100.00
59110;BME280;44895;47.438;18.978;2023-02-12T00:50:27;101300.34;;;3.74;100.00
59110;BME280;44895;47.438;18.978;2023-02-12T00:53:31;101300.97;;;3.77;100.00
59110;BME280;44895;47.438;18.978;2023-02-12T00:56:35;101298.69;;;3.73;100.00
59110;BME280;44895;47.438;18.978;2023-02-12T00:59:39;101301.38;;;3.73;100.00
59110;BME280;44895;47.438;18.978;2023-02-12T01:02:45;101302.81;;;3.76;100.00
59110;BME280;44895;47.438;18.978;2023-02-12T01:05:48;101299.09;;;3.77;100.00
59110;BME280;44895;47.438;18.978;2023-02-12T01:08:52;101297.44;;;3.76;100.00
59110;BME280;44895;47.438;18.978;2023-02-12T01:11:56;101309.88;;;3.70;100.00
59110;BME280;44895;47.438;18.978;2023-02-12T01:15:00;101314.81;;;3.73;100.00
59110;BME280;44895;47.438;18.978;2023-02-12T01:18:04;101312.81;;;3.69;100.00
59110;BME280;44895;47.438;18.978;2023-02-12T01:21:19;101313.38;;;3.71;100.00
59110;BME280;44895;47.438;18.978;2023-02-12T01:24:23;101293.44;;;3.53;100.00
59110;BME280;44895;47.438;18.978;2023-02-12T01:27:27;101285.19;;;3.55;100.00
59110;BME280;44895;47.438;18.978;2023-02-12T01:30:33;101287.59;;;3.63;100.00
59110;BME280;44895;47.438;18.978;2023-02-12T01:33:36;101298.81;;;3.53;100.00
59110;BME280;44895;47.438;18.978;2023-02-12T01:36:40;101288.78;;;3.42;100.00
59110;BME280;44895;47.438;18.978;2023-02-12T01:39:45;101284.81;;;3.51;100.00
59110;BME280;44895;47.438;18.978;2023-02-12T01:42:48;101290.66;;;3.41;100.00
59110;BME280;44895;47.438;18.978;2023-02-12T01:45:52;101283.44;;;3.35;100.00
59110;BME280;44895;47.438;18.978;2023-02-12T01:48:56;101291.25;;;3.43;100.00
59110;BME280;44895;47.438;18.978;2023-02-12T01:52:07;101308.25;;;3.37;100.00
59110;BME280;44895;47.438;18.978;2023-02-12T01:55:13;101313.00;;;3.35;100.00
59110;BME280;44895;47.438;18.978;2023-02-12T01:58:18;101315.69;;;3.35;100.00
59110;BME280;44895;47.438;18.978;2023-02-12T02:01:25;101314.88;;;3.28;100.00
59110;BME280;44895;47.438;18.978;2023-02-12T02:04:37;101306.81;;;3.35;100.00
59110;BME280;44895;47.438;18.978;2023-02-12T02:07:44;101306.81;;;3.35;100.00
59110;BME280;44895;47.438;18.978;2023-02-12T02:10:47;101312.81;;;3.30;100.00
59110;BME280;44895;47.438;18.978;2023-02-12T02:13:53;101312.84;;;3.23;100.00
59110;BME280;44895;47.438;18.978;2023-02-12T02:24:32;101304.63;;;3.12;100.00
59110;BME280;44895;47.438;18.978;2023-02-12T02:38:23;101327.72;;;3.26;100.00
59110;BME280;44895;47.438;18.978;2023-02-12T02:41:37;101320.47;;;3.26;100.00
59110;BME280;44895;47.438;18.978;2023-02-12T02:44:45;101331.00;;;3.28;100.00
59110;BME280;44895;47.438;18.978;2023-02-12T02:47:56;101330.69;;;3.11;100.00
59110;BME280;44895;47.438;18.978;2023-02-12T02:51:09;101329.56;;;3.32;100.00
59110;BME280;44895;47.438;18.978;2023-02-12T02:54:20;101332.88;;;3.28;100.00
59110;BME280;44895;47.438;18.978;2023-02-12T02:57:29;101328.78;;;3.18;100.00
59110;BME280;44895;47.438;18.978;2023-02-12T03:00:38;101341.19;;;3.19;100.00
59110;BME280;44895;47.438;18.978;2023-02-12T03:03:47;101348.16;;;3.27;100.00
59110;BME280;44895;47.438;18.978;2023-02-12T03:06:58;101348.56;;;3.31;100.00
59110;BME280;44895;47.438;18.978;2023-02-12T03:10:06;101354.31;;;3.34;100.00
59110;BME280;44895;47.438;18.978;2023-02-12T03:13:19;101358.88;;;3.34;100.00
59110;BME280;44895;47.438;18.978;2023-02-12T03:16:32;101356.22;;;3.27;100.00
59110;BME280;44895;47.438;18.978;2023-02-12T03:19:54;101362.19;;;3.29;100.00
59110;BME280;44895;47.438;18.978;2023-02-12T03:23:07;101364.28;;;3.27;100.00
59110;BME280;44895;47.438;18.978;2023-02-12T03:26:17;101372.53;;;3.32;100.00
59110;BME280;44895;47.438;18.978;2023-02-12T03:29:23;101379.72;;;3.38;100.00
59110;BME280;44895;47.438;18.978;2023-02-12T03:32:47;101386.56;;;3.28;100.00
59110;BME280;44895;47.438;18.978;2023-02-12T03:39:24;101392.97;;;3.26;100.00
59110;BME280;44895;47.438;18.978;2023-02-12T03:46:01;101390.50;;;3.25;100.00
59110;BME280;44895;47.438;18.978;2023-02-12T03:49:25;101394.03;;;3.19;100.00
59110;BME280;44895;47.438;18.978;2023-02-12T03:52:30;101389.53;;;3.13;100.00
59110;BME280;44895;47.438;18.978;2023-02-12T03:55:35;101400.47;;;3.11;100.00
59110;BME280;44895;47.438;18.978;2023-02-12T03:58:44;101407.91;;;3.09;100.00
59110;BME280;44895;47.438;18.978;2023-02-12T04:01:49;101407.50;;;3.12;100.00
59110;BME280;44895;47.438;18.978;2023-02-12T04:04:54;101407.72;;;3.10;100.00
59110;BME280;44895;47.438;18.978;2023-02-12T04:07:58;101423.81;;;3.10;100.00
59110;BME280;44895;47.438;18.978;2023-02-12T04:11:40;101434.19;;;2.87;100.00
59110;BME280;44895;47.438;18.978;2023-02-12T04:18:29;101450.72;;;2.70;100.00
59110;BME280;44895;47.438;18.978;2023-02-12T04:21:48;101458.97;;;2.55;100.00
59110;BME280;44895;47.438;18.978;2023-02-12T04:25:10;101466.84;;;2.64;100.00
59110;BME280;44895;47.438;18.978;2023-02-12T04:28:29;101485.00;;;2.61;100.00
59110;BME280;44895;47.438;18.978;2023-02-12T04:31:53;101488.69;;;2.60;100.00
59110;BME280;44895;47.438;18.978;2023-02-12T04:38:43;101465.59;;;2.73;100.00
59110;BME280;44895;47.438;18.978;2023-02-12T04:41:49;101479.19;;;2.58;100.00
59110;BME280;44895;47.438;18.978;2023-02-12T04:44:53;101490.53;;;2.47;100.00
59110;BME280;44895;47.438;18.978;2023-02-12T04:47:58;101494.47;;;2.71;100.00
59110;BME280;44895;47.438;18.978;2023-02-12T04:51:02;101489.94;;;2.65;100.00
59110;BME280;44895;47.438;18.978;2023-02-12T04:54:05;101501.69;;;2.57;100.00
59110;BME280;44895;47.438;18.978;2023-02-12T04:57:10;101505.22;;;2.77;100.00
59110;BME280;44895;47.438;18.978;2023-02-12T05:00:14;101518.81;;;2.69;100.00
59110;BME280;44895;47.438;18.978;2023-02-12T05:03:18;101522.09;;;2.38;100.00
59110;BME280;44895;47.438;18.978;2023-02-12T05:06:21;101534.28;;;2.40;100.00
59110;BME280;44895;47.438;18.978;2023-02-12T05:09:25;101526.66;;;2.37;100.00
59110;BME280;44895;47.438;18.978;2023-02-12T05:12:29;101529.28;;;2.17;100.00
59110;BME280;44895;47.438;18.978;2023-02-12T05:15:33;101541.50;;;2.40;100.00
59110;BME280;44895;47.438;18.978;2023-02-12T05:18:37;101561.22;;;2.12;100.00
59110;BME280;44895;47.438;18.978;2023-02-12T05:21:40;101553.03;;;2.34;100.00
59110;BME280;44895;47.438;18.978;2023-02-12T05:24:44;101548.94;;;2.44;100.00
59110;BME280;44895;47.438;18.978;2023-02-12T05:27:48;101571.25;;;2.65;100.00
59110;BME280;44895;47.438;18.978;2023-02-12T05:30:52;101568.78;;;2.64;100.00
59110;BME280;44895;47.438;18.978;2023-02-12T05:33:55;101568.78;;;2.84;100.00
59110;BME280;44895;47.438;18.978;2023-02-12T05:36:59;101566.31;;;3.09;100.00
59110;BME280;44895;47.438;18.978;2023-02-12T05:40:05;101570.22;;;3.06;100.00
59110;BME280;44895;47.438;18.978;2023-02-12T05:43:09;101581.16;;;2.78;100.00
59110;BME280;44895;47.438;18.978;2023-02-12T05:46:13;101574.16;;;3.04;100.00
59110;BME280;44895;47.438;18.978;2023-02-12T05:49:17;101585.13;;;2.96;100.00
59110;BME280;44895;47.438;18.978;2023-02-12T05:52:21;101591.09;;;3.24;100.00
59110;BME280;44895;47.438;18.978;2023-02-12T05:55:25;101597.28;;;2.98;100.00
59110;BME280;44895;47.438;18.978;2023-02-12T05:58:28;101603.28;;;2.93;100.00
59110;BME280;44895;47.438;18.978;2023-02-12T06:01:34;101596.88;;;2.94;100.00
59110;BME280;44895;47.438;18.978;2023-02-12T06:04:38;101608.44;;;2.88;100.00
59110;BME280;44895;47.438;18.978;2023-02-12T06:07:42;101615.03;;;2.92;100.00
59110;BME280;44895;47.438;18.978;2023-02-12T06:10:46;101618.31;;;2.81;100.00
59110;BME280;44895;47.438;18.978;2023-02-12T06:13:50;101617.53;;;3.01;100.00
59110;BME280;44895;47.438;18.978;2023-02-12T06:16:54;101621.25;;;2.86;100.00
59110;BME280;44895;47.438;18.978;2023-02-12T06:19:58;101621.03;;;2.94;100.00
59110;BME280;44895;47.438;18.978;2023-02-12T06:23:02;101629.91;;;3.08;100.00
59110;BME280;44895;47.438;18.978;2023-02-12T06:26:06;101639.63;;;3.09;100.00
59110;BME280;44895;47.438;18.978;2023-02-12T06:29:10;101623.94;;;3.33;100.00
59110;BME280;44895;47.438;18.978;2023-02-12T06:32:15;101631.78;;;3.08;100.00
59110;BME280;44895;47.438;18.978;2023-02-12T06:35:19;101643.75;;;3.19;100.00
59110;BME280;44895;47.438;18.978;2023-02-12T06:38:22;101645.00;;;3.16;100.00
59110;BME280;44895;47.438;18.978;2023-02-12T06:41:26;101634.06;;;3.24;100.00
59110;BME280;44895;47.438;18.978;2023-02-12T06:44:30;101628.66;;;3.71;100.00
59110;BME280;44895;47.438;18.978;2023-02-12T06:47:33;101637.75;;;3.70;100.00
59110;BME280;44895;47.438;18.978;2023-02-12T06:50:37;101640.41;;;3.77;100.00
59110;BME280;44895;47.438;18.978;2023-02-12T06:53:41;101655.22;;;4.13;100.00
59110;BME280;44895;47.438;18.978;2023-02-12T06:56:45;101664.59;;;3.90;100.00
59110;BME280;44895;47.438;18.978;2023-02-12T06:59:49;101660.41;;;4.53;100.00
59110;BME280;44895;47.438;18.978;2023-02-12T07:02:55;101665.69;;;4.28;100.00
59110;BME280;44895;47.438;18.978;2023-02-12T07:05:59;101676.59;;;4.47;100.00
59110;BME280;44895;47.438;18.978;2023-02-12T07:09:04;101693.31;;;3.90;100.00
59110;BME280;44895;47.438;18.978;2023-02-12T07:12:08;101695.34;;;4.08;100.00
59110;BME280;44895;47.438;18.978;2023-02-12T07:15:12;101697.44;;;3.92;100.00
59110;BME280;44895;47.438;18.978;2023-02-12T07:18:16;101706.94;;;4.08;100.00
59110;BME280;44895;47.438;18.978;2023-02-12T07:21:20;101706.44;;;4.32;100.00
59110;BME280;44895;47.438;18.978;2023-02-12T07:24:24;101715.19;;;4.72;100.00
59110;BME280;44895;47.438;18.978;2023-02-12T07:27:27;101704.75;;;5.21;100.00
59110;BME280;44895;47.438;18.978;2023-02-12T07:30:31;101706.88;;;5.88;100.00
59110;BME280;44895;47.438;18.978;2023-02-12T07:33:35;101712.31;;;8.83;100.00
59110;BME280;44895;47.438;18.978;2023-02-12T07:36:40;101714.09;;;9.06;100.00
59110;BME280;44895;47.438;18.978;2023-02-12T07:39:44;101716.19;;;9.33;100.00
59110;BME280;44895;47.438;18.978;2023-02-12T07:42:48;101716.44;;;8.86;100.00
59110;BME280;44895;47.438;18.978;2023-02-12T07:46:15;101721.94;;;9.20;100.00
59110;BME280;44895;47.438;18.978;2023-02-12T07:49:20;101721.28;;;10.86;100.00
59110;BME280;44895;47.438;18.978;2023-02-12T07:52:25;101722.84;;;12.12;100.00
59110;BME280;44895;47.438;18.978;2023-02-12T07:55:28;101729.63;;;12.63;100.00
59110;BME280;44895;47.438;18.978;2023-02-12T07:58:32;101728.00;;;12.62;95.81
59110;BME280;44895;47.438;18.978;2023-02-12T08:01:39;101733.09;;;10.97;100.00
59110;BME280;44895;47.438;18.978;2023-02-12T08:04:43;101728.59;;;10.81;100.00
59110;BME280;44895;47.438;18.978;2023-02-12T08:07:47;101728.06;;;11.43;100.00
59110;BME280;44895;47.438;18.978;2023-02-12T08:10:50;101729.41;;;12.11;100.00
59110;BME280;44895;47.438;18.978;2023-02-12T08:13:56;101732.66;;;12.13;100.00
59110;BME280;44895;47.438;18.978;2023-02-12T08:16:59;101745.28;;;10.28;100.00
59110;BME280;44895;47.438;18.978;2023-02-12T08:20:03;101732.50;;;11.17;100.00
59110;BME280;44895;47.438;18.978;2023-02-12T08:23:07;101737.03;;;11.77;100.00
59110;BME280;44895;47.438;18.978;2023-02-12T08:26:31;101738.75;;;12.31;97.71
59110;BME280;44895;47.438;18.978;2023-02-12T08:29:35;101746.94;;;12.31;100.00
59110;BME280;44895;47.438;18.978;2023-02-12T08:32:39;101749.75;;;12.51;96.00
59110;BME280;44895;47.438;18.978;2023-02-12T08:35:43;101749.47;;;12.43;95.66
59110;BME280;44895;47.438;18.978;2023-02-12T08:38:47;101748.34;;;12.44;99.08
59110;BME280;44895;47.438;18.978;2023-02-12T08:41:53;101758.22;;;12.60;99.95
59110;BME280;44895;47.438;18.978;2023-02-12T08:44:57;101749.63;;;13.04;95.69
59110;BME280;44895;47.438;18.978;2023-02-12T08:48:01;101751.28;;;14.84;74.55
59110;BME280;44895;47.438;18.978;2023-02-12T08:51:20;101745.06;;;13.77;77.82
59110;BME280;44895;47.438;18.978;2023-02-12T08:54:26;101763.06;;;11.62;86.02
59110;BME280;44895;47.438;18.978;2023-02-12T08:57:30;101769.66;;;12.57;88.33
59110;BME280;44895;47.438;18.978;2023-02-12T09:00:34;101775.94;;;12.63;87.71
59110;BME280;44895;47.438;18.978;2023-02-12T09:03:38;101775.50;;;12.81;82.80
59110;BME280;44895;47.438;18.978;2023-02-12T09:06:42;101772.88;;;13.28;78.49
59110;BME280;44895;47.438;18.978;2023-02-12T09:09:46;101770.69;;;14.23;71.48
59110;BME280;44895;47.438;18.978;2023-02-12T09:12:50;101766.38;;;13.44;74.24
59110;BME280;44895;47.438;18.978;2023-02-12T09:15:54;101787.53;;;14.40;73.80
59110;BME280;44895;47.438;18.978;2023-02-12T09:18:58;101791.66;;;14.32;67.91
59110;BME280;44895;47.438;18.978;2023-02-12T09:22:01;101790.09;;;13.95;66.46
59110;BME280;44895;47.438;18.978;2023-02-12T09:25:05;101790.88;;;14.32;66.83
59110;BME280;44895;47.438;18.978;2023-02-12T09:28:10;101789.53;;;14.14;65.09
59110;BME280;44895;47.438;18.978;2023-02-12T09:31:17;101795.34;;;15.68;60.24
59110;BME280;44895;47.438;18.978;2023-02-12T09:34:23;101795.94;;;16.72;57.14
59110;BME280;44895;47.438;18.978;2023-02-12T09:37:27;101798.75;;;16.91;52.98
59110;BME280;44895;47.438;18.978;2023-02-12T09:43:52;101804.03;;;16.82;49.92
59110;BME280;44895;47.438;18.978;2023-02-12T09:47:00;101807.84;;;13.98;60.57
59110;BME280;44895;47.438;18.978;2023-02-12T09:50:47;101818.38;;;13.01;68.45
59110;BME280;44895;47.438;18.978;2023-02-12T09:54:04;101819.00;;;11.48;78.26
59110;BME280;44895;47.438;18.978;2023-02-12T09:57:32;101820.44;;;11.55;86.29
59110;BME280;44895;47.438;18.978;2023-02-12T10:00:38;101833.34;;;10.49;89.58
59110;BME280;44895;47.438;18.978;2023-02-12T10:03:42;101834.50;;;10.98;92.87
59110;BME280;44895;47.438;18.978;2023-02-12T10:07:17;101835.28;;;12.02;89.09
59110;BME280;44895;47.438;18.978;2023-02-12T10:10:30;101832.16;;;11.06;92.48
59110;BME280;44895;47.438;18.978;2023-02-12T10:24:42;101851.84;;;10.35;100.00
59110;BME280;44895;47.438;18.978;2023-02-12T10:27:59;101851.31;;;10.72;100.00
59110;BME280;44895;47.438;18.978;2023-02-12T10:31:08;101837.34;;;10.29;100.00
59110;BME280;44895;47.438;18.978;2023-02-12T10:34:21;101856.38;;;10.29;100.00
59110;BME280;44895;47.438;18.978;2023-02-12T10:37:39;101853.75;;;10.18;100.00
59110;BME280;44895;47.438;18.978;2023-02-12T10:40:45;101849.31;;;9.94;100.00
59110;BME280;44895;47.438;18.978;2023-02-12T10:43:49;101864.28;;;9.97;100.00
59110;BME280;44895;47.438;18.978;2023-02-12T10:46:53;101857.94;;;9.91;100.00
59110;BME280;44895;47.438;18.978;2023-02-12T10:49:59;101850.94;;;9.78;100.00
59110;BME280;44895;47.438;18.978;2023-02-12T10:53:03;101857.69;;;9.93;100.00
59110;BME280;44895;47.438;18.978;2023-02-12T10:59:22;101851.34;;;9.70;100.00
59110;BME280;44895;47.438;18.978;2023-02-12T11:02:32;101854.16;;;9.75;100.00
59110;BME280;44895;47.438;18.978;2023-02-12T11:05:40;101851.38;;;9.87;100.00
59110;BME280;44895;47.438;18.978;2023-02-12T11:08:45;101856.22;;;9.85;100.00
59110;BME280;44895;47.438;18.978;2023-02-12T11:11:49;101847.34;;;9.90;100.00
59110;BME280;44895;47.438;18.978;2023-02-12T11:14:59;101851.72;;;9.45;100.00
59110;BME280;44895;47.438;18.978;2023-02-12T11:18:05;101847.94;;;9.92;100.00
59110;BME280;44895;47.438;18.978;2023-02-12T11:21:11;101854.34;;;10.20;100.00
59110;BME280;44895;47.438;18.978;2023-02-12T11:27:30;101854.47;;;9.62;100.00
59110;BME280;44895;47.438;18.978;2023-02-12T11:30:34;101856.44;;;9.67;100.00
59110;BME280;44895;47.438;18.978;2023-02-12T11:33:39;101861.34;;;9.53;100.00
59110;BME280;44895;47.438;18.978;2023-02-12T11:36:51;101862.06;;;9.77;100.00
59110;BME280;44895;47.438;18.978;2023-02-12T11:39:55;101865.66;;;9.83;100.00
59110;BME280;44895;47.438;18.978;2023-02-12T11:43:06;101866.34;;;9.90;100.00
59110;BME280;44895;47.438;18.978;2023-02-12T11:46:18;101858.75;;;9.75;100.00
59110;BME280;44895;47.438;18.978;2023-02-12T11:49:27;101861.56;;;9.80;100.00
59110;BME280;44895;47.438;18.978;2023-02-12T11:52:34;101862.94;;;9.83;100.00
59110;BME280;44895;47.438;18.978;2023-02-12T11:55:39;101859.81;;;9.74;100.00
59110;BME280;44895;47.438;18.978;2023-02-12T11:58:46;101858.03;;;9.96;100.00
59110;BME280;44895;47.438;18.978;2023-02-12T12:01:52;101863.06;;;10.05;100.00
59110;BME280;44895;47.438;18.978;2023-02-12T12:05:11;101852.19;;;9.88;100.00
59110;BME280;44895;47.438;18.978;2023-02-12T12:08:25;101848.56;;;10.16;100.00
59110;BME280;44895;47.438;18.978;2023-02-12T12:11:46;101851.69;;;10.42;100.00
59110;BME280;44895;47.438;18.978;2023-02-12T12:14:54;101845.28;;;10.48;100.00
59110;BME280;44895;47.438;18.978;2023-02-12T12:21:53;101831.41;;;10.89;100.00
59110;BME280;44895;47.438;18.978;2023-02-12T12:25:07;101832.91;;;11.02;98.86
59110;BME280;44895;47.438;18.978;2023-02-12T12:28:24;101834.13;;;10.67;94.52
59110;BME280;44895;47.438;18.978;2023-02-12T12:31:39;101838.75;;;10.32;100.00
59110;BME280;44895;47.438;18.978;2023-02-12T12:34:43;101834.00;;;10.39;100.00
59110;BME280;44895;47.438;18.978;2023-02-12T12:38:02;101829.84;;;10.54;100.00
59110;BME280;44895;47.438;18.978;2023-02-12T12:41:23;101826.81;;;10.33;100.00
59110;BME280;44895;47.438;18.978;2023-02-12T12:44:40;101834.25;;;10.21;100.00
59110;BME280;44895;47.438;18.978;2023-02-12T12:51:50;101829.81;;;9.98;100.00
59110;BME280;44895;47.438;18.978;2023-02-12T12:55:25;101842.47;;;9.75;100.00
59110;BME280;44895;47.438;18.978;2023-02-12T13:12:41;101845.00;;;9.07;100.00
59110;BME280;44895;47.438;18.978;2023-02-12T13:16:10;101851.41;;;9.01;100.00
59110;BME280;44895;47.438;18.978;2023-02-12T13:23:15;101840.59;;;8.89;100.00
59110;BME280;44895;47.438;18.978;2023-02-12T13:27:12;101839.66;;;8.83;100.00
59110;BME280;44895;47.438;18.978;2023-02-12T13:30:22;101843.44;;;8.82;100.00
59110;BME280;44895;47.438;18.978;2023-02-12T13:33:39;101841.06;;;8.86;100.00
59110;BME280;44895;47.438;18.978;2023-02-12T13:36:45;101838.19;;;9.04;100.00
59110;BME280;44895;47.438;18.978;2023-02-12T13:39:50;101844.25;;;8.82;100.00
59110;BME280;44895;47.438;18.978;2023-02-12T13:43:17;101846.28;;;8.75;100.00
59110;BME280;44895;47.438;18.978;2023-02-12T13:46:37;101851.81;;;8.80;100.00
59110;BME280;44895;47.438;18.978;2023-02-12T13:53:46;101855.94;;;8.83;100.00
59110;BME280;44895;47.438;18.978;2023-02-12T13:57:00;101849.47;;;8.60;100.00
59110;BME280;44895;47.438;18.978;2023-02-12T14:00:52;101858.53;;;8.42;100.00
59110;BME280;44895;47.438;18.978;2023-02-12T14:03:31;101869.59;;;8.29;100.00
59110;BME280;44895;47.438;18.978;2023-02-12T14:06:36;101864.50;;;8.44;100.00
59110;BME280;44895;47.438;18.978;2023-02-12T14:09:46;101867.72;;;8.41;100.00
59110;BME280;44895;47.438;18.978;2023-02-12T14:13:23;101868.66;;;8.35;100.00
59110;BME280;44895;47.438;18.978;2023-02-12T14:23:01;101858.00;;;7.98;100.00
59110;BME280;44895;47.438;18.978;2023-02-12T14:26:15;101866.28;;;8.03;100.00
59110;BME280;44895;47.438;18.978;2023-02-12T14:29:21;101867.56;;;8.00;100.00
59110;BME280;44895;47.438;18.978;2023-02-12T14:39:46;101886.63;;;8.06;100.00
59110;BME280;44895;47.438;18.978;2023-02-12T14:42:55;101877.41;;;7.95;100.00
59110;BME280;44895;47.438;18.978;2023-02-12T14:49:51;101886.22;;;7.90;100.00
59110;BME280;44895;47.438;18.978;2023-02-12T14:53:06;101889.53;;;7.92;100.00
59110;BME280;44895;47.438;18.978;2023-02-12T14:56:19;101901.13;;;7.81;100.00
59110;BME280;44895;47.438;18.978;2023-02-12T14:59:25;101894.81;;;7.87;100.00
59110;BME280;44895;47.438;18.978;2023-02-12T15:02:33;101895.69;;;7.69;100.00
59110;BME280;44895;47.438;18.978;2023-02-12T15:05:46;101890.88;;;7.71;100.00
59110;BME280;44895;47.438;18.978;2023-02-12T15:09:01;101899.56;;;7.61;100.00
59110;BME280;44895;47.438;18.978;2023-02-12T15:12:15;101898.91;;;7.78;100.00
59110;BME280;44895;47.438;18.978;2023-02-12T15:15:30;101891.78;;;7.65;100.00
59110;BME280;44895;47.438;18.978;2023-02-12T15:21:43;101909.75;;;7.90;100.00
59110;BME280;44895;47.438;18.978;2023-02-12T15:24:49;101908.09;;;7.58;100.00
59110;BME280;44895;47.438;18.978;2023-02-12T15:27:57;101913.66;;;7.63;100.00
59110;BME280;44895;47.438;18.978;2023-02-12T15:31:04;101905.41;;;7.58;100.00
59110;BME280;44895;47.438;18.978;2023-02-12T15:34:21;101905.22;;;7.41;100.00
59110;BME280;44895;47.438;18.978;2023-02-12T15:37:30;101911.56;;;7.16;100.00
59110;BME280;44895;47.438;18.978;2023-02-12T15:40:35;101910.78;;;7.09;100.00
59110;BME280;44895;47.438;18.978;2023-02-12T15:43:40;101905.91;;;6.81;100.00
59110;BME280;44895;47.438;18.978;2023-02-12T15:47:11;101907.28;;;6.46;100.00
59110;BME280;44895;47.438;18.978;2023-02-12T15:50:16;101919.41;;;6.37;100.00
59110;BME280;44895;47.438;18.978;2023-02-12T15:53:22;101925.16;;;6.15;100.00
59110;BME280;44895;47.438;18.978;2023-02-12T15:56:28;101927.53;;;5.66;100.00
59110;BME280;44895;47.438;18.978;2023-02-12T15:59:33;101921.13;;;5.61;100.00
59110;BME280;44895;47.438;18.978;2023-02-12T16:02:39;101933.31;;;5.18;100.00
59110;BME280;44895;47.438;18.978;2023-02-12T16:05:43;101944.28;;;5.30;100.00
59110;BME280;44895;47.438;18.978;2023-02-12T16:09:01;101950.00;;;4.68;100.00
59110;BME280;44895;47.438;18.978;2023-02-12T16:12:13;101953.31;;;4.36;100.00
59110;BME280;44895;47.438;18.978;2023-02-12T16:15:30;101962.00;;;4.18;100.00
59110;BME280;44895;47.438;18.978;2023-02-12T16:18:35;101972.72;;;4.05;100.00
59110;BME280;44895;47.438;18.978;2023-02-12T16:21:41;101972.28;;;3.95;100.00
59110;BME280;44895;47.438;18.978;2023-02-12T16:24:48;101981.53;;;3.72;100.00
59110;BME280;44895;47.438;18.978;2023-02-12T16:28:00;101982.81;;;3.83;100.00
59110;BME280;44895;47.438;18.978;2023-02-12T16:31:10;101984.22;;;3.72;100.00
59110;BME280;44895;47.438;18.978;2023-02-12T16:34:29;101989.16;;;3.68;100.00
59110;BME280;44895;47.438;18.978;2023-02-12T16:44:27;102007.19;;;3.33;100.00
59110;BME280;44895;47.438;18.978;2023-02-12T16:47:34;102006.41;;;3.39;100.00
59110;BME280;44895;47.438;18.978;2023-02-12T16:50:45;102009.78;;;2.84;100.00
59110;BME280;44895;47.438;18.978;2023-02-12T16:53:50;102015.09;;;2.34;100.00
59110;BME280;44895;47.438;18.978;2023-02-12T16:56:57;102022.81;;;2.66;100.00
59110;BME280;44895;47.438;18.978;2023-02-12T17:00:06;102017.94;;;2.76;100.00
59110;BME280;44895;47.438;18.978;2023-02-12T17:03:14;102023.47;;;2.96;100.00
59110;BME280;44895;47.438;18.978;2023-02-12T17:06:20;102027.25;;;3.02;100.00
59110;BME280;44895;47.438;18.978;2023-02-12T17:09:25;102035.78;;;2.40;100.00
59110;BME280;44895;47.438;18.978;2023-02-12T17:12:29;102038.53;;;2.25;100.00
59110;BME280;44895;47.438;18.978;2023-02-12T17:15:37;102043.13;;;2.53;100.00
59110;BME280;44895;47.438;18.978;2023-02-12T17:18:45;102047.63;;;2.68;100.00
59110;BME280;44895;47.438;18.978;2023-02-12T17:21:49;102040.97;;;2.64;100.00
59110;BME280;44895;47.438;18.978;2023-02-12T17:24:55;102032.91;;;2.42;100.00
59110;BME280;44895;47.438;18.978;2023-02-12T17:27:59;102040.78;;;2.22;100.00
59110;BME280;44895;47.438;18.978;2023-02-12T17:31:04;102040.41;;;2.47;100.00
59110;BME280;44895;47.438;18.978;2023-02-12T17:34:10;102044.34;;;2.51;100.00
59110;BME280;44895;47.438;18.978;2023-02-12T17:37:15;102034.72;;;2.13;100.00
59110;BME280;44895;47.438;18.978;2023-02-12T17:40:20;102045.72;;;2.03;100.00
59110;BME280;44895;47.438;18.978;2023-02-12T17:43:25;102045.88;;;1.65;100.00
59110;BME280;44895;47.438;18.978;2023-02-12T17:46:29;102042.13;;;1.96;100.00
59110;BME280;44895;47.438;18.978;2023-02-12T17:49:34;102045.19;;;1.93;100.00
59110;BME280;44895;47.438;18.978;2023-02-12T17:52:39;102049.91;;;1.91;100.00
59110;BME280;44895;47.438;18.978;2023-02-12T17:55:43;102053.91;;;1.65;100.00
59110;BME280;44895;47.438;18.978;2023-02-12T17:58:48;102055.31;;;1.46;100.00